Time;durP1;ratioP1;P1;durP2;ratioP2;P2;SDS_P1;SDS_P2;PMS_P1;PMS_P2;Temp;Humidity;BMP_temperature;BMP_pressure;BME280_temperature;BME280_humidity;BME280_pressure;Samples;Min_cycle;Max_cycle;Signal;HPM_P1;HPM_P2
2023/11/15 00:02:19;;;;;;;2.72;0.85;;;;;;;;;;4901483;29;20043;-79
2023/11/15 00:05:05;;;;;;;2.17;1.00;;;;;;;;;;4903280;29;20024;-78
2023/11/15 00:07:50;;;;;;;3.92;0.80;;;;;;;;;;4901940;29;20504;-79
2023/11/15 00:10:35;;;;;;;2.65;0.85;;;;;;;;;;4896097;29;20778;-78
2023/11/15 00:13:21;;;;;;;2.55;0.90;;;;;;;;;;4900997;29;20067;-78
2023/11/15 00:16:06;;;;;;;2.50;1.02;;;;;;;;;;4898486;29;20115;-79
2023/11/15 00:18:52;;;;;;;3.40;0.90;;;;;;;;;;4898760;29;20024;-79
2023/11/15 00:21:37;;;;;;;1.55;1.15;;;;;;;;;;4896922;29;20036;-79
2023/11/15 00:24:22;;;;;;;2.13;0.90;;;;;;;;;;4891288;29;20499;-79
2023/11/15 00:27:08;;;;;;;5.25;0.98;;;;;;;;;;4906814;29;20083;-79
2023/11/15 00:29:53;;;;;;;1.20;0.73;;;;;;;;;;4901941;29;20035;-79
2023/11/15 00:32:38;;;;;;;3.55;1.73;;;;;;;;;;4904027;29;20032;-78
2023/11/15 00:35:25;;;;;;;4.28;1.08;;;;;;;;;;4900542;29;20031;-79
2023/11/15 00:38:11;;;;;;;4.25;0.73;;;;;;;;;;4888595;29;20016;-79
2023/11/15 00:40:57;;;;;;;2.47;0.60;;;;;;;;;;4899218;29;20028;-79
2023/11/15 00:43:44;;;;;;;1.90;0.70;;;;;;;;;;4898773;29;20064;-79
2023/11/15 00:46:29;;;;;;;3.90;1.20;;;;;;;;;;4906877;29;20116;-79
2023/11/15 00:49:14;;;;;;;1.95;0.90;;;;;;;;;;4902871;29;20640;-79
2023/11/15 00:51:59;;;;;;;5.43;1.00;;;;;;;;;;4899182;29;20637;-79
2023/11/15 00:54:45;;;;;;;4.63;0.95;;;;;;;;;;4904584;29;20040;-79
2023/11/15 00:57:30;;;;;;;3.00;1.10;;;;;;;;;;4903346;29;20568;-79
2023/11/15 01:00:23;;;;;;;1.42;0.70;;;;;;;;;;4892953;29;20394;-78
2023/11/15 01:03:09;;;;;;;1.40;0.82;;;;;;;;;;4902015;29;20056;-78
2023/11/15 01:05:55;;;;;;;1.67;0.80;;;;;;;;;;4897082;29;20055;-77
2023/11/15 01:08:41;;;;;;;2.15;0.88;;;;;;;;;;4903405;29;20024;-80
2023/11/15 01:11:26;;;;;;;2.95;0.98;;;;;;;;;;4895747;29;20459;-78
2023/11/15 01:14:11;;;;;;;5.95;0.90;;;;;;;;;;4901467;29;20036;-79
2023/11/15 01:16:56;;;;;;;6.55;1.33;;;;;;;;;;4893236;29;20471;-80
2023/11/15 01:19:43;;;;;;;1.15;0.90;;;;;;;;;;4902227;29;20032;-80
2023/11/15 01:22:28;;;;;;;1.52;1.00;;;;;;;;;;4906379;29;20031;-80
2023/11/15 01:25:14;;;;;;;3.80;1.10;;;;;;;;;;4897272;29;20607;-79
2023/11/15 01:27:59;;;;;;;2.45;0.90;;;;;;;;;;4902182;29;20028;-80
2023/11/15 01:30:45;;;;;;;1.35;0.90;;;;;;;;;;4903166;29;20059;-80
2023/11/15 01:33:30;;;;;;;4.00;0.98;;;;;;;;;;4885099;29;20067;-80
2023/11/15 01:36:16;;;;;;;2.40;0.95;;;;;;;;;;4911586;29;20020;-80
2023/11/15 01:39:01;;;;;;;2.08;1.00;;;;;;;;;;4903313;29;20036;-79
2023/11/15 01:41:50;;;;;;;4.18;1.10;;;;;;;;;;4903674;29;20059;-80
2023/11/15 01:44:35;;;;;;;3.20;1.10;;;;;;;;;;4898991;29;20028;-79
2023/11/15 01:47:20;;;;;;;4.13;1.40;;;;;;;;;;4903576;29;20043;-78
2023/11/15 01:50:09;;;;;;;2.50;1.10;;;;;;;;;;4900858;29;20059;-78
2023/11/15 01:53:00;;;;;;;6.43;1.02;;;;;;;;;;4899672;29;20111;-78
2023/11/15 01:55:47;;;;;;;2.47;1.17;;;;;;;;;;4898908;29;20064;-78
2023/11/15 01:58:32;;;;;;;3.50;0.98;;;;;;;;;;4896344;29;20031;-78
2023/11/15 02:01:18;;;;;;;4.63;1.23;;;;;;;;;;4901920;29;20031;-78
2023/11/15 02:04:06;;;;;;;2.90;1.00;;;;;;;;;;4895201;29;20032;-78
2023/11/15 02:06:52;;;;;;;5.15;1.45;;;;;;;;;;4899480;29;20050;-79
2023/11/15 02:09:37;;;;;;;3.03;1.08;;;;;;;;;;4902612;29;20039;-78
2023/11/15 02:12:22;;;;;;;3.70;0.90;;;;;;;;;;4903368;29;20439;-78
2023/11/15 02:15:08;;;;;;;4.25;0.95;;;;;;;;;;4904873;29;20027;-78
2023/11/15 02:17:54;;;;;;;4.53;1.80;;;;;;;;;;4901229;29;20028;-78
2023/11/15 02:20:39;;;;;;;2.10;0.90;;;;;;;;;;4903767;29;20020;-78
2023/11/15 02:23:26;;;;;;;4.85;1.27;;;;;;;;;;4904389;29;20495;-78
2023/11/15 02:26:12;;;;;;;4.18;1.02;;;;;;;;;;4901068;29;20036;-78
2023/11/15 02:28:57;;;;;;;6.65;1.77;;;;;;;;;;4901717;29;20036;-78
2023/11/15 02:31:42;;;;;;;3.88;1.00;;;;;;;;;;4903572;29;20040;-80
2023/11/15 02:34:28;;;;;;;3.30;1.00;;;;;;;;;;4903026;29;20039;-79
2023/11/15 02:37:13;;;;;;;1.42;0.90;;;;;;;;;;4894233;29;20028;-81
2023/11/15 02:39:58;;;;;;;5.72;1.10;;;;;;;;;;4905296;29;20475;-81
2023/11/15 02:42:43;;;;;;;4.35;1.00;;;;;;;;;;4899885;29;20514;-79
2023/11/15 02:45:28;;;;;;;3.40;0.80;;;;;;;;;;4895832;29;20471;-80
2023/11/15 02:48:16;;;;;;;5.65;1.70;;;;;;;;;;4900165;29;20656;-80
2023/11/15 02:51:02;;;;;;;4.43;0.90;;;;;;;;;;4895697;29;20511;-80
2023/11/15 02:53:48;;;;;;;3.17;1.13;;;;;;;;;;4900278;29;20095;-79
2023/11/15 02:56:33;;;;;;;4.25;1.63;;;;;;;;;;4902047;29;20036;-80
2023/11/15 02:59:19;;;;;;;5.20;1.35;;;;;;;;;;4903476;29;20485;-79
2023/11/15 03:02:04;;;;;;;4.18;1.40;;;;;;;;;;4909142;29;20036;-78
2023/11/15 03:04:50;;;;;;;3.92;1.10;;;;;;;;;;4903466;29;20024;-78
2023/11/15 03:07:35;;;;;;;3.20;1.15;;;;;;;;;;4907490;29;20024;-78
2023/11/15 03:10:20;;;;;;;7.40;1.83;;;;;;;;;;4902520;29;20060;-78
2023/11/15 03:13:06;;;;;;;1.85;0.80;;;;;;;;;;4906937;29;20630;-78
2023/11/15 03:15:52;;;;;;;3.53;0.95;;;;;;;;;;4896867;29;20028;-79
2023/11/15 03:18:37;;;;;;;3.28;1.20;;;;;;;;;;4898875;29;20022;-78
2023/11/15 03:21:22;;;;;;;4.25;1.35;;;;;;;;;;4900855;29;20427;-79
2023/11/15 03:24:07;;;;;;;2.83;1.10;;;;;;;;;;4900368;29;20115;-78
2023/11/15 03:26:54;;;;;;;2.10;1.17;;;;;;;;;;4885808;29;20024;-78
2023/11/15 03:29:39;;;;;;;4.05;1.30;;;;;;;;;;4898325;29;20038;-78
2023/11/15 03:32:24;;;;;;;2.72;1.17;;;;;;;;;;4907189;29;20044;-79
2023/11/15 03:35:10;;;;;;;5.97;2.33;;;;;;;;;;4903129;29;20021;-78
2023/11/15 03:37:55;;;;;;;8.32;2.15;;;;;;;;;;4894910;29;20043;-79
2023/11/15 03:40:41;;;;;;;1.48;0.80;;;;;;;;;;4905565;29;20033;-78
2023/11/15 03:43:26;;;;;;;4.85;1.40;;;;;;;;;;4913425;29;20137;-78
2023/11/15 03:46:11;;;;;;;5.95;1.23;;;;;;;;;;4895317;29;20032;-78
2023/11/15 03:49:00;;;;;;;2.38;1.10;;;;;;;;;;4904604;29;20035;-80
2023/11/15 03:51:45;;;;;;;5.22;1.92;;;;;;;;;;4910178;29;20503;-78
2023/11/15 03:54:32;;;;;;;5.13;1.17;;;;;;;;;;4906046;29;20035;-79
2023/11/15 03:57:18;;;;;;;3.03;1.02;;;;;;;;;;4899449;29;20035;-78
2023/11/15 04:00:06;;;;;;;3.83;1.10;;;;;;;;;;4903151;29;20435;-78
2023/11/15 04:02:51;;;;;;;2.97;0.90;;;;;;;;;;4903131;29;20072;-79
2023/11/15 04:05:36;;;;;;;4.65;1.85;;;;;;;;;;4905003;29;20115;-79
2023/11/15 04:08:22;;;;;;;7.68;1.83;;;;;;;;;;4913654;29;20028;-79
2023/11/15 04:11:08;;;;;;;3.08;1.25;;;;;;;;;;4908984;29;20023;-78
2023/11/15 04:13:53;;;;;;;2.30;1.10;;;;;;;;;;4905848;29;20403;-79
2023/11/15 04:16:38;;;;;;;4.10;1.48;;;;;;;;;;4890157;29;20027;-79
2023/11/15 04:19:24;;;;;;;4.53;2.05;;;;;;;;;;4905009;29;20036;-79
2023/11/15 04:22:09;;;;;;;6.07;1.50;;;;;;;;;;4901978;29;20439;-79
2023/11/15 04:24:54;;;;;;;7.25;1.65;;;;;;;;;;4897572;29;20475;-79
2023/11/15 04:27:39;;;;;;;3.63;1.05;;;;;;;;;;4902919;29;20032;-78
2023/11/15 04:30:26;;;;;;;6.60;1.02;;;;;;;;;;4899492;29;20047;-78
2023/11/15 04:33:11;;;;;;;5.20;1.30;;;;;;;;;;4903999;29;20024;-78
2023/11/15 04:35:56;;;;;;;4.53;1.35;;;;;;;;;;4900655;29;20546;-78
2023/11/15 04:38:41;;;;;;;5.38;1.40;;;;;;;;;;4898685;29;20159;-79
2023/11/15 04:41:27;;;;;;;5.85;1.23;;;;;;;;;;4906562;29;20043;-79
2023/11/15 04:44:12;;;;;;;5.47;1.38;;;;;;;;;;4900770;29;20028;-79
2023/11/15 04:46:58;;;;;;;4.30;1.38;;;;;;;;;;4902006;29;20153;-79
2023/11/15 04:49:44;;;;;;;2.25;0.93;;;;;;;;;;4902001;29;20056;-78
2023/11/15 04:52:29;;;;;;;3.75;1.63;;;;;;;;;;4906855;29;20117;-79
2023/11/15 04:55:15;;;;;;;4.57;1.27;;;;;;;;;;4905669;29;20035;-78
2023/11/15 04:58:00;;;;;;;3.15;1.20;;;;;;;;;;4903838;29;20386;-78
2023/11/15 05:00:45;;;;;;;7.13;1.17;;;;;;;;;;4897482;29;20031;-79
2023/11/15 05:03:30;;;;;;;4.18;1.63;;;;;;;;;;4898628;29;20111;-79
2023/11/15 05:06:16;;;;;;;5.13;1.45;;;;;;;;;;4898772;29;20570;-79
2023/11/15 05:09:01;;;;;;;6.20;2.00;;;;;;;;;;4892285;29;20042;-78
2023/11/15 05:11:46;;;;;;;3.88;1.95;;;;;;;;;;4904529;29;20055;-78
2023/11/15 05:14:32;;;;;;;4.47;1.30;;;;;;;;;;4906476;29;20044;-80
2023/11/15 05:17:17;;;;;;;6.80;1.70;;;;;;;;;;4900577;29;20038;-80
2023/11/15 05:20:03;;;;;;;3.55;1.35;;;;;;;;;;4902766;29;20036;-79
2023/11/15 05:22:48;;;;;;;5.90;1.58;;;;;;;;;;4899729;29;20024;-79
2023/11/15 05:25:33;;;;;;;3.67;1.83;;;;;;;;;;4903726;29;20063;-79
2023/11/15 05:28:20;;;;;;;7.60;1.83;;;;;;;;;;4904919;29;20043;-80
2023/11/15 05:31:06;;;;;;;10.57;1.65;;;;;;;;;;4899918;29;20587;-79
2023/11/15 05:33:51;;;;;;;6.13;1.45;;;;;;;;;;4904379;29;20107;-81
2023/11/15 05:36:36;;;;;;;8.25;1.85;;;;;;;;;;4898797;29;20035;-79
2023/11/15 05:39:22;;;;;;;3.55;1.30;;;;;;;;;;4890703;29;20134;-79
2023/11/15 05:42:08;;;;;;;5.70;1.35;;;;;;;;;;4897232;29;20032;-78
2023/11/15 05:44:53;;;;;;;6.43;1.38;;;;;;;;;;4898961;29;20180;-78
2023/11/15 05:47:39;;;;;;;6.50;2.15;;;;;;;;;;4887664;29;20088;-79
2023/11/15 05:50:24;;;;;;;6.03;1.70;;;;;;;;;;4900136;29;20052;-80
2023/11/15 05:53:09;;;;;;;5.90;1.38;;;;;;;;;;4902797;29;20016;-79
2023/11/15 05:55:54;;;;;;;4.13;1.73;;;;;;;;;;4903073;29;20068;-78
2023/11/15 05:58:41;;;;;;;4.60;1.40;;;;;;;;;;4900977;29;20027;-78
2023/11/15 06:01:26;;;;;;;7.45;1.38;;;;;;;;;;4903663;29;20067;-79
2023/11/15 06:04:11;;;;;;;5.97;1.17;;;;;;;;;;4903192;29;20028;-80
2023/11/15 06:06:58;;;;;;;6.85;1.40;;;;;;;;;;4891942;29;20040;-79
2023/11/15 06:09:46;;;;;;;4.82;1.40;;;;;;;;;;4898087;29;20119;-79
2023/11/15 06:12:31;;;;;;;3.95;1.02;;;;;;;;;;4898765;29;20012;-80
2023/11/15 06:15:18;;;;;;;4.32;1.48;;;;;;;;;;4900230;29;20400;-80
2023/11/15 06:18:06;;;;;;;4.75;2.25;;;;;;;;;;4901947;29;20406;-82
2023/11/15 06:20:51;;;;;;;5.32;1.42;;;;;;;;;;4919013;29;20028;-82
2023/11/15 06:23:37;;;;;;;5.45;1.58;;;;;;;;;;4899572;29;20035;-78
2023/11/15 06:26:22;;;;;;;3.70;1.27;;;;;;;;;;4899754;29;20048;-78
2023/11/15 06:29:08;;;;;;;6.13;1.25;;;;;;;;;;4897970;29;20175;-77
2023/11/15 06:31:53;;;;;;;3.38;1.95;;;;;;;;;;4900299;29;20117;-78
2023/11/15 06:34:39;;;;;;;7.65;1.48;;;;;;;;;;4904932;29;20032;-78
2023/11/15 06:37:24;;;;;;;3.03;1.00;;;;;;;;;;4902726;29;20061;-78
2023/11/15 06:40:09;;;;;;;3.30;1.08;;;;;;;;;;4899380;29;20059;-76
2023/11/15 06:42:57;;;;;;;3.30;1.17;;;;;;;;;;4903132;29;20028;-77
2023/11/15 06:45:55;;;;;;;4.72;1.42;;;;;;;;;;4910839;29;20068;-77
2023/11/15 06:48:42;;;;;;;5.15;1.98;;;;;;;;;;4918193;29;20443;-77
2023/11/15 06:51:27;;;;;;;7.38;1.20;;;;;;;;;;4906219;29;20044;-76
2023/11/15 06:54:13;;;;;;;13.10;1.85;;;;;;;;;;4903385;29;20510;-79
2023/11/15 06:56:58;;;;;;;2.60;1.08;;;;;;;;;;4903276;29;20075;-77
2023/11/15 06:59:43;;;;;;;6.43;2.05;;;;;;;;;;4900280;29;20051;-78
2023/11/15 07:02:28;;;;;;;6.18;1.23;;;;;;;;;;4900806;29;20035;-78
2023/11/15 07:05:14;;;;;;;4.00;1.73;;;;;;;;;;4901471;29;20031;-77
2023/11/15 07:07:59;;;;;;;5.72;1.33;;;;;;;;;;4905355;29;20076;-78
2023/11/15 07:10:45;;;;;;;4.13;1.52;;;;;;;;;;4900612;29;20060;-76
2023/11/15 07:13:31;;;;;;;5.28;1.48;;;;;;;;;;4913209;29;20043;-77
2023/11/15 07:16:16;;;;;;;3.22;1.50;;;;;;;;;;4904125;29;20055;-77
2023/11/15 07:19:02;;;;;;;5.93;1.50;;;;;;;;;;4906860;29;20035;-77
2023/11/15 07:21:47;;;;;;;7.38;1.70;;;;;;;;;;4900097;29;20450;-76
2023/11/15 07:24:38;;;;;;;3.60;1.55;;;;;;;;;;4895165;29;20888;-77
2023/11/15 07:27:24;;;;;;;4.20;1.50;;;;;;;;;;4898423;29;20518;-76
2023/11/15 07:30:12;;;;;;;14.38;2.22;;;;;;;;;;4902906;29;20032;-76
2023/11/15 07:32:57;;;;;;;8.95;1.90;;;;;;;;;;4894391;29;20494;-78
2023/11/15 07:35:43;;;;;;;4.15;1.85;;;;;;;;;;4909451;29;20107;-77
2023/11/15 07:38:28;;;;;;;7.78;2.00;;;;;;;;;;4902658;29;20180;-78
2023/11/15 07:41:14;;;;;;;7.45;1.80;;;;;;;;;;4907754;29;20110;-79
2023/11/15 07:43:59;;;;;;;7.43;1.88;;;;;;;;;;4905366;29;20049;-77
2023/11/15 07:46:46;;;;;;;7.10;2.42;;;;;;;;;;4899644;29;20036;-77
2023/11/15 07:49:31;;;;;;;7.10;2.33;;;;;;;;;;4901063;29;20052;-80
2023/11/15 07:52:23;;;;;;;4.20;1.85;;;;;;;;;;4904767;29;20155;-79
2023/11/15 07:55:08;;;;;;;4.65;1.70;;;;;;;;;;4900463;29;20709;-79
2023/11/15 07:57:53;;;;;;;4.03;1.58;;;;;;;;;;4892983;29;20483;-78
2023/11/15 08:00:48;;;;;;;8.38;2.35;;;;;;;;;;4900811;29;20075;-79
2023/11/15 08:03:33;;;;;;;5.85;1.52;;;;;;;;;;4897133;29;20024;-78
2023/11/15 08:06:19;;;;;;;17.35;2.42;;;;;;;;;;4902436;29;20064;-77
2023/11/15 08:09:05;;;;;;;6.72;2.13;;;;;;;;;;4902297;29;20024;-77
2023/11/15 08:11:55;;;;;;;10.88;3.17;;;;;;;;;;4901569;29;20450;-77
2023/11/15 08:14:40;;;;;;;5.53;1.73;;;;;;;;;;4904608;29;20474;-77
2023/11/15 08:17:25;;;;;;;11.48;2.03;;;;;;;;;;4904229;29;20406;-77
2023/11/15 08:20:11;;;;;;;15.02;2.38;;;;;;;;;;4902511;29;20115;-77
2023/11/15 08:22:57;;;;;;;8.75;3.00;;;;;;;;;;4901746;29;20032;-78
2023/11/15 08:25:48;;;;;;;4.53;1.75;;;;;;;;;;4904501;29;20120;-78
2023/11/15 08:28:33;;;;;;;7.65;2.13;;;;;;;;;;4901823;29;21623;-76
2023/11/15 08:31:23;;;;;;;4.80;1.80;;;;;;;;;;4900165;29;20032;-78
2023/11/15 08:34:10;;;;;;;7.88;1.90;;;;;;;;;;4902157;29;20028;-77
2023/11/15 08:36:55;;;;;;;11.57;2.25;;;;;;;;;;4898285;29;20031;-77
2023/11/15 08:39:42;;;;;;;5.72;2.28;;;;;;;;;;4904439;29;20039;-78
2023/11/15 08:42:27;;;;;;;7.53;2.22;;;;;;;;;;4910959;29;20568;-78
2023/11/15 08:45:15;;;;;;;9.57;2.50;;;;;;;;;;4907405;29;20218;-77
2023/11/15 08:48:00;;;;;;;9.02;2.03;;;;;;;;;;4905182;29;20032;-77
2023/11/15 08:50:47;;;;;;;8.68;2.10;;;;;;;;;;4905356;29;20044;-78
2023/11/15 08:53:33;;;;;;;7.28;2.30;;;;;;;;;;4907734;29;20028;-77
2023/11/15 08:56:19;;;;;;;8.07;1.95;;;;;;;;;;4903636;29;20061;-77
2023/11/15 08:59:04;;;;;;;7.35;1.70;;;;;;;;;;4897996;29;20387;-82
2023/11/15 09:01:49;;;;;;;6.47;1.90;;;;;;;;;;4884726;29;20095;-79
2023/11/15 09:04:35;;;;;;;8.68;1.73;;;;;;;;;;4901277;29;20583;-80
2023/11/15 09:07:20;;;;;;;5.72;1.60;;;;;;;;;;4905279;29;20039;-79
2023/11/15 09:10:08;;;;;;;4.85;1.58;;;;;;;;;;4900876;29;20028;-79
2023/11/15 09:12:57;;;;;;;5.07;1.40;;;;;;;;;;4904363;29;20028;-79
2023/11/15 09:15:42;;;;;;;4.65;1.83;;;;;;;;;;4906608;29;20483;-79
2023/11/15 09:18:27;;;;;;;6.65;1.23;;;;;;;;;;4903486;29;20036;-79
2023/11/15 09:21:12;;;;;;;2.50;1.60;;;;;;;;;;4901143;29;20290;-81
2023/11/15 09:23:58;;;;;;;4.88;1.45;;;;;;;;;;4897841;29;20616;-78
2023/11/15 09:26:44;;;;;;;6.13;1.48;;;;;;;;;;4904376;29;20107;-79
2023/11/15 09:29:29;;;;;;;2.83;0.90;;;;;;;;;;4906893;29;20032;-79
2023/11/15 09:32:14;;;;;;;3.65;1.40;;;;;;;;;;4903436;29;20099;-78
2023/11/15 09:35:00;;;;;;;5.10;1.40;;;;;;;;;;4904598;29;20087;-79
2023/11/15 09:37:45;;;;;;;3.20;1.20;;;;;;;;;;4906042;29;20036;-78
2023/11/15 09:40:30;;;;;;;2.00;0.90;;;;;;;;;;4905087;29;20456;-77
2023/11/15 09:43:18;;;;;;;2.10;1.20;;;;;;;;;;4904552;29;20032;-78
2023/11/15 09:46:08;;;;;;;1.70;1.20;;;;;;;;;;4904150;29;20024;-79
2023/11/15 09:48:54;;;;;;;2.28;1.27;;;;;;;;;;4903102;29;20371;-78
2023/11/15 09:51:40;;;;;;;3.38;1.33;;;;;;;;;;4898997;29;20904;-78
2023/11/15 09:54:25;;;;;;;1.77;0.93;;;;;;;;;;4901547;29;20035;-78
2023/11/15 09:57:10;;;;;;;2.95;1.23;;;;;;;;;;4899653;29;20016;-80
2023/11/15 09:59:56;;;;;;;4.10;1.42;;;;;;;;;;4899861;29;20131;-78
2023/11/15 10:02:41;;;;;;;4.28;0.98;;;;;;;;;;4900753;29;20648;-79
2023/11/15 10:05:27;;;;;;;3.65;1.08;;;;;;;;;;4902195;29;20056;-79
2023/11/15 10:08:15;;;;;;;3.88;0.98;;;;;;;;;;4905397;29;20028;-79
2023/11/15 10:11:02;;;;;;;2.25;0.90;;;;;;;;;;4904529;29;20027;-80
2023/11/15 10:13:51;;;;;;;3.60;0.98;;;;;;;;;;4904685;29;20048;-79
2023/11/15 10:16:36;;;;;;;2.63;1.00;;;;;;;;;;4903757;29;20113;-79
2023/11/15 10:19:24;;;;;;;2.28;0.90;;;;;;;;;;4898019;29;20368;-80
2023/11/15 10:22:10;;;;;;;6.43;1.05;;;;;;;;;;4902753;29;20394;-78
2023/11/15 10:25:05;;;;;;;1.45;1.00;;;;;;;;;;4903070;29;20075;-80
2023/11/15 10:28:00;;;;;;;2.53;1.05;;;;;;;;;;4903299;29;20035;-79
2023/11/15 10:30:48;;;;;;;3.83;0.82;;;;;;;;;;4902459;29;20431;-79
2023/11/15 10:33:34;;;;;;;5.47;1.00;;;;;;;;;;4904670;29;20072;-79
2023/11/15 10:36:21;;;;;;;2.13;1.00;;;;;;;;;;4899792;29;20083;-80
2023/11/15 10:39:06;;;;;;;4.82;1.55;;;;;;;;;;4896668;29;20529;-79
2023/11/15 10:41:52;;;;;;;2.28;1.05;;;;;;;;;;4897574;29;20479;-78
2023/11/15 10:44:37;;;;;;;2.75;0.90;;;;;;;;;;4899689;29;20606;-77
2023/11/15 10:47:23;;;;;;;4.28;1.08;;;;;;;;;;4897703;29;20031;-78
2023/11/15 10:50:13;;;;;;;2.42;1.08;;;;;;;;;;4904662;29;20040;-77
2023/11/15 10:52:59;;;;;;;2.75;1.27;;;;;;;;;;4905785;29;20111;-78
2023/11/15 10:55:44;;;;;;;2.80;1.20;;;;;;;;;;4902750;29;20031;-80
2023/11/15 10:58:31;;;;;;;2.17;1.02;;;;;;;;;;4903924;29;20039;-78
2023/11/15 11:01:45;;;;;;;3.85;1.02;;;;;;;;;;4903404;29;20415;-79
2023/11/15 11:04:30;;;;;;;4.05;1.17;;;;;;;;;;4905316;29;20150;-78
2023/11/15 11:07:19;;;;;;;2.55;1.00;;;;;;;;;;4900711;29;20082;-78
2023/11/15 11:10:14;;;;;;;3.20;1.10;;;;;;;;;;4898505;29;20043;-78
2023/11/15 11:13:00;;;;;;;3.72;1.20;;;;;;;;;;4896125;29;20020;-80
2023/11/15 11:15:46;;;;;;;1.38;0.98;;;;;;;;;;4901013;29;20379;-79
2023/11/15 11:18:31;;;;;;;2.17;1.08;;;;;;;;;;4895668;29;20516;-80
2023/11/15 11:21:16;;;;;;;2.22;1.00;;;;;;;;;;4899710;29;20487;-80
2023/11/15 11:24:10;;;;;;;4.95;1.20;;;;;;;;;;4904841;29;20028;-80
2023/11/15 11:27:11;;;;;;;1.98;1.00;;;;;;;;;;4902730;29;20067;-79
2023/11/15 11:30:02;;;;;;;4.60;1.35;;;;;;;;;;4897324;29;20091;-78
2023/11/15 11:32:49;;;;;;;3.22;1.25;;;;;;;;;;4900729;29;20054;-78
2023/11/15 11:35:34;;;;;;;5.13;1.20;;;;;;;;;;4901592;29;20486;-79
2023/11/15 11:38:41;;;;;;;4.05;1.05;;;;;;;;;;4905596;29;20028;-79
2023/11/15 11:41:27;;;;;;;6.68;1.20;;;;;;;;;;4899054;29;20130;-80
2023/11/15 11:44:13;;;;;;;6.63;1.13;;;;;;;;;;4904619;29;20514;-79
2023/11/15 11:47:02;;;;;;;3.33;1.38;;;;;;;;;;4889347;29;20071;-79
2023/11/15 11:49:48;;;;;;;2.40;0.88;;;;;;;;;;4898153;29;20092;-80
2023/11/15 11:52:36;;;;;;;2.60;1.05;;;;;;;;;;4899457;29;20043;-80
2023/11/15 11:55:22;;;;;;;3.13;0.90;;;;;;;;;;4897617;29;20055;-78
2023/11/15 11:58:07;;;;;;;1.80;0.98;;;;;;;;;;4898656;29;20032;-79
2023/11/15 12:01:06;;;;;;;4.47;1.13;;;;;;;;;;4901132;29;20020;-79
2023/11/15 12:03:58;;;;;;;2.57;1.20;;;;;;;;;;4898523;29;20067;-79
2023/11/15 12:06:44;;;;;;;7.55;1.25;;;;;;;;;;4903485;29;20043;-79
2023/11/15 12:09:29;;;;;;;3.10;1.15;;;;;;;;;;4907704;29;20371;-79
2023/11/15 12:12:15;;;;;;;2.47;1.40;;;;;;;;;;4904588;29;20119;-78
2023/11/15 12:15:01;;;;;;;2.33;1.40;;;;;;;;;;4906705;29;20036;-78
2023/11/15 12:17:46;;;;;;;4.22;1.30;;;;;;;;;;4903966;29;20027;-78
2023/11/15 12:20:38;;;;;;;5.05;1.27;;;;;;;;;;4907853;29;20059;-79
2023/11/15 12:23:23;;;;;;;4.45;1.52;;;;;;;;;;4904909;29;20032;-79
2023/11/15 12:26:09;;;;;;;2.85;1.02;;;;;;;;;;4905269;29;20593;-80
2023/11/15 12:28:54;;;;;;;2.55;1.40;;;;;;;;;;4905280;29;20059;-81
2023/11/15 12:31:39;;;;;;;5.95;1.20;;;;;;;;;;4906524;29;20028;-80
2023/11/15 12:34:26;;;;;;;5.22;1.55;;;;;;;;;;4904820;29;20068;-79
2023/11/15 12:37:11;;;;;;;4.72;1.30;;;;;;;;;;4897949;29;20072;-80
2023/11/15 12:39:56;;;;;;;3.08;0.90;;;;;;;;;;4901794;29;20035;-81
2023/11/15 12:42:43;;;;;;;2.30;1.00;;;;;;;;;;4905361;29;20396;-80
2023/11/15 12:45:32;;;;;;;1.05;0.90;;;;;;;;;;4902293;29;20036;-78
2023/11/15 12:48:17;;;;;;;2.35;1.73;;;;;;;;;;4903671;29;20072;-80
2023/11/15 12:51:05;;;;;;;2.70;1.02;;;;;;;;;;4896495;29;20044;-80
2023/11/15 12:53:52;;;;;;;3.80;1.10;;;;;;;;;;4902317;29;20039;-80
2023/11/15 12:56:37;;;;;;;2.70;0.80;;;;;;;;;;4904769;29;20032;-80
2023/11/15 12:59:31;;;;;;;2.15;1.00;;;;;;;;;;4906709;29;20301;-80
2023/11/15 13:02:24;;;;;;;7.10;1.52;;;;;;;;;;4904316;29;20039;-79
2023/11/15 13:05:09;;;;;;;3.75;1.42;;;;;;;;;;4900008;29;20039;-80
2023/11/15 13:07:55;;;;;;;1.95;1.00;;;;;;;;;;4900688;29;20056;-79
2023/11/15 13:10:40;;;;;;;2.30;0.82;;;;;;;;;;4902577;29;20028;-79
2023/11/15 13:13:26;;;;;;;3.50;0.90;;;;;;;;;;4902347;29;20115;-79
2023/11/15 13:16:12;;;;;;;4.00;1.33;;;;;;;;;;4902062;29;20040;-79
2023/11/15 13:18:57;;;;;;;4.72;1.40;;;;;;;;;;4902316;29;20036;-79
2023/11/15 13:21:45;;;;;;;3.65;1.02;;;;;;;;;;4903501;29;20395;-79
2023/11/15 13:24:30;;;;;;;2.15;1.20;;;;;;;;;;4904639;29;20483;-79
2023/11/15 13:27:17;;;;;;;4.93;1.10;;;;;;;;;;4906123;29;20487;-79
2023/11/15 13:30:03;;;;;;;2.83;1.08;;;;;;;;;;4902454;29;20482;-78
2023/11/15 13:32:49;;;;;;;5.40;1.45;;;;;;;;;;4906753;29;20103;-78
2023/11/15 13:35:34;;;;;;;5.95;1.05;;;;;;;;;;4901722;29;20393;-79
2023/11/15 13:38:20;;;;;;;5.72;1.23;;;;;;;;;;4898361;29;20483;-79
2023/11/15 13:41:08;;;;;;;4.20;1.20;;;;;;;;;;4893203;29;20180;-79
2023/11/15 13:43:54;;;;;;;2.30;1.00;;;;;;;;;;4899591;29;20035;-81
2023/11/15 13:46:40;;;;;;;3.22;1.13;;;;;;;;;;4903574;29;20032;-79
2023/11/15 13:49:25;;;;;;;6.85;1.30;;;;;;;;;;4905377;29;20056;-78
2023/11/15 13:52:10;;;;;;;6.18;1.20;;;;;;;;;;4905123;29;20028;-78
2023/11/15 13:54:56;;;;;;;2.20;1.65;;;;;;;;;;4903945;29;20095;-79
2023/11/15 13:57:41;;;;;;;4.00;1.50;;;;;;;;;;4898962;29;20028;-78
2023/11/15 14:00:33;;;;;;;3.10;1.10;;;;;;;;;;4905582;29;20040;-79
2023/11/15 14:03:19;;;;;;;3.75;0.85;;;;;;;;;;4898797;29;20122;-79
2023/11/15 14:06:05;;;;;;;2.45;1.30;;;;;;;;;;4900553;29;20103;-79
2023/11/15 14:08:51;;;;;;;5.05;1.30;;;;;;;;;;4903048;29;20040;-79
2023/11/15 14:11:36;;;;;;;4.65;1.77;;;;;;;;;;4901682;29;20039;-79
2023/11/15 14:14:23;;;;;;;5.13;1.75;;;;;;;;;;4903918;29;20036;-79
2023/11/15 14:17:10;;;;;;;7.05;1.98;;;;;;;;;;4898326;29;20079;-78
2023/11/15 14:19:55;;;;;;;3.45;1.10;;;;;;;;;;4910875;29;20043;-79
2023/11/15 14:22:41;;;;;;;2.90;1.30;;;;;;;;;;4900416;29;20084;-78
2023/11/15 14:25:31;;;;;;;4.85;1.70;;;;;;;;;;4900333;29;20142;-77
2023/11/15 14:28:17;;;;;;;4.38;1.73;;;;;;;;;;4898607;29;20051;-78
2023/11/15 14:31:03;;;;;;;4.95;1.35;;;;;;;;;;4901460;29;20028;-77
2023/11/15 14:33:51;;;;;;;3.95;1.70;;;;;;;;;;4900755;29;20107;-76
2023/11/15 14:36:40;;;;;;;6.97;1.23;;;;;;;;;;4900423;29;20084;-78
2023/11/15 14:39:29;;;;;;;3.95;1.52;;;;;;;;;;4901912;29;20072;-78
2023/11/15 14:42:16;;;;;;;5.93;1.48;;;;;;;;;;4906082;29;20036;-78
2023/11/15 14:45:01;;;;;;;8.35;1.23;;;;;;;;;;4905030;29;20040;-77
2023/11/15 14:47:46;;;;;;;2.15;1.30;;;;;;;;;;4903541;29;20036;-78
2023/11/15 14:50:33;;;;;;;2.78;1.17;;;;;;;;;;4903267;29;20052;-78
2023/11/15 14:53:18;;;;;;;4.72;1.63;;;;;;;;;;4895912;29;20065;-80
2023/11/15 14:56:03;;;;;;;8.57;1.90;;;;;;;;;;4905808;29;20171;-78
2023/11/15 14:58:50;;;;;;;5.32;1.15;;;;;;;;;;4905023;29;20039;-79
2023/11/15 15:01:36;;;;;;;2.88;1.15;;;;;;;;;;4908371;29;20028;-77
2023/11/15 15:04:23;;;;;;;5.15;1.02;;;;;;;;;;4902406;29;20094;-77
2023/11/15 15:07:08;;;;;;;5.68;1.83;;;;;;;;;;4897438;29;20075;-80
2023/11/15 15:09:53;;;;;;;3.75;1.25;;;;;;;;;;4898654;29;20404;-78
2023/11/15 15:12:39;;;;;;;6.88;1.17;;;;;;;;;;4893997;29;20411;-79
2023/11/15 15:15:24;;;;;;;3.30;1.30;;;;;;;;;;4898696;29;20111;-79
2023/11/15 15:18:10;;;;;;;4.90;1.30;;;;;;;;;;4896905;29;20077;-80
2023/11/15 15:20:56;;;;;;;4.22;1.27;;;;;;;;;;4901175;29;20063;-79
2023/11/15 15:23:41;;;;;;;4.03;1.40;;;;;;;;;;4901576;29;20060;-80
2023/11/15 15:26:26;;;;;;;6.13;1.20;;;;;;;;;;4903279;29;20062;-79
2023/11/15 15:29:12;;;;;;;1.88;1.02;;;;;;;;;;4901942;29;20036;-82
2023/11/15 15:31:57;;;;;;;4.13;1.45;;;;;;;;;;4897086;29;20082;-82
2023/11/15 15:34:42;;;;;;;3.80;1.25;;;;;;;;;;4904018;29;20028;-81
2023/11/15 15:37:28;;;;;;;4.63;1.33;;;;;;;;;;4903596;29;20552;-78
2023/11/15 15:40:18;;;;;;;4.07;1.50;;;;;;;;;;4905926;29;20058;-80
2023/11/15 15:43:03;;;;;;;6.53;2.00;;;;;;;;;;4897533;29;20028;-80
2023/11/15 15:45:48;;;;;;;5.28;1.35;;;;;;;;;;4901586;29;20479;-80
2023/11/15 15:48:34;;;;;;;6.20;1.02;;;;;;;;;;4905081;29;20031;-79
2023/11/15 15:51:23;;;;;;;5.78;1.42;;;;;;;;;;4870242;29;20196;-78
2023/11/15 15:54:08;;;;;;;3.38;1.42;;;;;;;;;;4870803;29;20040;-78
2023/11/15 15:56:53;;;;;;;3.53;1.13;;;;;;;;;;4867186;29;20028;-79
2023/11/15 15:59:39;;;;;;;4.03;1.95;;;;;;;;;;4870423;29;20024;-79
2023/11/15 16:02:24;;;;;;;5.70;1.75;;;;;;;;;;4870224;29;20351;-78
2023/11/15 16:05:09;;;;;;;5.85;1.40;;;;;;;;;;4867557;29;20041;-78
2023/11/15 16:07:55;;;;;;;5.30;1.30;;;;;;;;;;4869402;29;20460;-80
2023/11/15 16:10:40;;;;;;;1.42;1.20;;;;;;;;;;4873689;29;20412;-81
2023/11/15 16:13:25;;;;;;;4.35;1.38;;;;;;;;;;4875426;29;20029;-82
2023/11/15 16:16:11;;;;;;;6.35;1.25;;;;;;;;;;4874910;29;20032;-81
2023/11/15 16:18:57;;;;;;;4.85;1.60;;;;;;;;;;4869918;29;20055;-79
2023/11/15 16:21:42;;;;;;;5.50;1.60;;;;;;;;;;4874130;29;20436;-80
2023/11/15 16:24:27;;;;;;;4.95;1.33;;;;;;;;;;4875316;29;20029;-79
2023/11/15 16:27:13;;;;;;;3.85;1.23;;;;;;;;;;4864564;29;20480;-80
2023/11/15 16:29:58;;;;;;;7.03;2.15;;;;;;;;;;4867168;29;20091;-79
2023/11/15 16:32:43;;;;;;;8.63;2.10;;;;;;;;;;4873085;29;20040;-80
2023/11/15 16:35:29;;;;;;;6.68;1.38;;;;;;;;;;4870809;29;20039;-81
2023/11/15 16:38:14;;;;;;;2.25;1.10;;;;;;;;;;4871160;29;20032;-80